Terminal Aerodrome Forecast
Issued by NWS Wichita, KS

Home | Current Version | Previous Version | Graphics & Text | Print | Product List | Glossary On
Versions: 1 2 3 4 5 6 7 8 9 10 11 12 13 14 15 16 17 18 19 20
000
FTUS43 KICT 241200 AAA
TAFICT
TAF AMD
KICT 241227Z 2412/2512 35013KT P6SM SCT013 OVC025
      TEMPO 2412/2415 BKN012
     FM241500 34022G30KT P6SM OVC080
     FM242000 33017G26KT P6SM SCT100=

USA.gov is the U.S. government's official web portal to all federal, state and local government web resources and services.